sensor_id;sensor_type;location;lat;lon;timestamp;pressure;altitude;pressure_sealevel;temperature;humidity
51083;BME280;37131;42.694;23.350;2022-07-21T00:01:15;95721.47;;;19.15;54.12
51083;BME280;37131;42.694;23.350;2022-07-21T00:03:40;95731.53;;;19.08;53.79
51083;BME280;37131;42.694;23.350;2022-07-21T00:06:06;95722.28;;;19.00;55.30
51083;BME280;37131;42.694;23.350;2022-07-21T00:08:32;95723.88;;;18.96;54.49
51083;BME280;37131;42.694;23.350;2022-07-21T00:10:58;95718.84;;;19.05;54.15
51083;BME280;37131;42.694;23.350;2022-07-21T00:13:24;95724.66;;;18.86;54.97
51083;BME280;37131;42.694;23.350;2022-07-21T00:15:49;95716.97;;;18.69;54.01
51083;BME280;37131;42.694;23.350;2022-07-21T00:18:16;95712.47;;;18.49;54.92
51083;BME280;37131;42.694;23.350;2022-07-21T00:20:41;95720.16;;;18.92;53.96
51083;BME280;37131;42.694;23.350;2022-07-21T00:23:07;95730.47;;;19.09;53.13
51083;BME280;37131;42.694;23.350;2022-07-21T00:25:32;95729.41;;;18.84;54.83
51083;BME280;37131;42.694;23.350;2022-07-21T00:27:57;95728.34;;;18.85;55.71
51083;BME280;37131;42.694;23.350;2022-07-21T00:30:23;95729.69;;;18.88;55.86
51083;BME280;37131;42.694;23.350;2022-07-21T00:32:48;95730.75;;;18.92;55.47
51083;BME280;37131;42.694;23.350;2022-07-21T00:35:14;95715.91;;;18.60;56.00
51083;BME280;37131;42.694;23.350;2022-07-21T00:37:40;95728.84;;;18.56;57.21
51083;BME280;37131;42.694;23.350;2022-07-21T00:40:08;95729.63;;;18.57;56.76
51083;BME280;37131;42.694;23.350;2022-07-21T00:42:35;95729.13;;;18.55;56.66
51083;BME280;37131;42.694;23.350;2022-07-21T00:45:01;95731.72;;;18.34;57.66
51083;BME280;37131;42.694;23.350;2022-07-21T00:47:29;95733.84;;;18.48;56.91
51083;BME280;37131;42.694;23.350;2022-07-21T00:49:55;95727.78;;;18.52;57.47
51083;BME280;37131;42.694;23.350;2022-07-21T00:52:21;95711.91;;;18.27;58.26
51083;BME280;37131;42.694;23.350;2022-07-21T00:54:47;95739.09;;;18.22;58.18
51083;BME280;37131;42.694;23.350;2022-07-21T00:57:14;95735.97;;;18.46;57.32
51083;BME280;37131;42.694;23.350;2022-07-21T00:59:40;95729.06;;;18.34;58.39
51083;BME280;37131;42.694;23.350;2022-07-21T01:02:06;95719.78;;;18.11;59.05
51083;BME280;37131;42.694;23.350;2022-07-21T01:04:32;95713.16;;;17.98;58.56
51083;BME280;37131;42.694;23.350;2022-07-21T01:07:01;95713.09;;;17.88;58.85
51083;BME280;37131;42.694;23.350;2022-07-21T01:09:27;95696.53;;;17.93;58.02
51083;BME280;37131;42.694;23.350;2022-07-21T01:11:53;95713.16;;;18.03;58.62
51083;BME280;37131;42.694;23.350;2022-07-21T01:14:18;95705.78;;;17.95;59.22
51083;BME280;37131;42.694;23.350;2022-07-21T01:16:44;95713.97;;;18.14;58.61
51083;BME280;37131;42.694;23.350;2022-07-21T01:19:10;95710.66;;;17.66;61.47
51083;BME280;37131;42.694;23.350;2022-07-21T01:21:40;95711.69;;;17.65;60.90
51083;BME280;37131;42.694;23.350;2022-07-21T01:24:06;95706.69;;;17.68;61.34
51083;BME280;37131;42.694;23.350;2022-07-21T01:26:47;95710.72;;;17.86;59.98
51083;BME280;37131;42.694;23.350;2022-07-21T01:29:14;95709.25;;;17.53;62.20
51083;BME280;37131;42.694;23.350;2022-07-21T01:31:41;95716.22;;;17.27;62.14
51083;BME280;37131;42.694;23.350;2022-07-21T01:34:08;95713.63;;;17.32;62.66
51083;BME280;37131;42.694;23.350;2022-07-21T01:36:33;95711.13;;;17.52;60.74
51083;BME280;37131;42.694;23.350;2022-07-21T01:38:59;95708.69;;;17.46;62.45
51083;BME280;37131;42.694;23.350;2022-07-21T01:41:43;95703.66;;;17.39;62.33
51083;BME280;37131;42.694;23.350;2022-07-21T01:44:10;95704.13;;;17.31;63.26
51083;BME280;37131;42.694;23.350;2022-07-21T01:46:42;95704.13;;;17.31;62.44
51083;BME280;37131;42.694;23.350;2022-07-21T01:49:10;95701.56;;;17.41;62.19
51083;BME280;37131;42.694;23.350;2022-07-21T01:51:36;95702.19;;;17.59;62.13
51083;BME280;37131;42.694;23.350;2022-07-21T01:54:03;95700.50;;;17.42;62.67
51083;BME280;37131;42.694;23.350;2022-07-21T01:56:28;95704.13;;;17.84;59.63
51083;BME280;37131;42.694;23.350;2022-07-21T01:58:56;95696.72;;;17.86;60.24
51083;BME280;37131;42.694;23.350;2022-07-21T02:01:23;95706.16;;;17.71;61.48
51083;BME280;37131;42.694;23.350;2022-07-21T02:03:51;95697.72;;;17.69;61.63
51083;BME280;37131;42.694;23.350;2022-07-21T02:06:17;95701.44;;;17.79;61.78
51083;BME280;37131;42.694;23.350;2022-07-21T02:08:43;95702.38;;;17.47;61.48
51083;BME280;37131;42.694;23.350;2022-07-21T02:11:09;95713.91;;;17.35;61.54
51083;BME280;37131;42.694;23.350;2022-07-21T02:13:34;95703.41;;;17.41;61.97
51083;BME280;37131;42.694;23.350;2022-07-21T02:16:00;95701.50;;;17.31;62.70
51083;BME280;37131;42.694;23.350;2022-07-21T02:18:25;95687.50;;;17.25;62.70
51083;BME280;37131;42.694;23.350;2022-07-21T02:20:51;95703.34;;;17.30;63.51
51083;BME280;37131;42.694;23.350;2022-07-21T02:23:17;95706.03;;;17.41;63.35
51083;BME280;37131;42.694;23.350;2022-07-21T02:25:43;95707.31;;;17.33;65.16
51083;BME280;37131;42.694;23.350;2022-07-21T02:28:09;95703.75;;;17.07;63.77
51083;BME280;37131;42.694;23.350;2022-07-21T02:30:35;95703.00;;;17.16;64.63
51083;BME280;37131;42.694;23.350;2022-07-21T02:33:00;95705.94;;;17.20;64.87
51083;BME280;37131;42.694;23.350;2022-07-21T02:35:26;95701.63;;;17.09;64.21
51083;BME280;37131;42.694;23.350;2022-07-21T02:37:51;95700.78;;;16.98;64.62
51083;BME280;37131;42.694;23.350;2022-07-21T02:40:17;95705.38;;;17.18;63.71
51083;BME280;37131;42.694;23.350;2022-07-21T02:42:42;95701.72;;;16.87;64.17
51083;BME280;37131;42.694;23.350;2022-07-21T02:45:08;95700.94;;;16.86;64.36
51083;BME280;37131;42.694;23.350;2022-07-21T02:48:10;95696.75;;;16.90;65.28
51083;BME280;37131;42.694;23.350;2022-07-21T02:50:38;95693.47;;;17.05;63.81
51083;BME280;37131;42.694;23.350;2022-07-21T02:53:23;95702.44;;;16.77;63.79
51083;BME280;37131;42.694;23.350;2022-07-21T02:55:51;95699.69;;;16.94;63.58
51083;BME280;37131;42.694;23.350;2022-07-21T02:58:23;95696.00;;;16.62;64.49
51083;BME280;37131;42.694;23.350;2022-07-21T03:00:54;95702.34;;;16.66;64.07
51083;BME280;37131;42.694;23.350;2022-07-21T03:03:22;95706.66;;;16.78;63.23
51083;BME280;37131;42.694;23.350;2022-07-21T03:05:48;95707.44;;;16.46;64.38
51083;BME280;37131;42.694;23.350;2022-07-21T03:08:14;95712.56;;;16.30;63.58
51083;BME280;37131;42.694;23.350;2022-07-21T03:10:40;95700.69;;;16.28;66.16
51083;BME280;37131;42.694;23.350;2022-07-21T03:13:06;95711.44;;;16.21;65.64
51083;BME280;37131;42.694;23.350;2022-07-21T03:15:32;95706.84;;;16.11;66.63
51083;BME280;37131;42.694;23.350;2022-07-21T03:17:57;95707.38;;;16.13;65.75
51083;BME280;37131;42.694;23.350;2022-07-21T03:20:25;95714.75;;;16.11;65.45
51083;BME280;37131;42.694;23.350;2022-07-21T03:22:51;95712.50;;;16.25;64.75
51083;BME280;37131;42.694;23.350;2022-07-21T03:25:17;95703.38;;;16.06;64.99
51083;BME280;37131;42.694;23.350;2022-07-21T03:27:43;95713.56;;;16.24;65.96
51083;BME280;37131;42.694;23.350;2022-07-21T03:30:09;95712.94;;;16.44;63.04
51083;BME280;37131;42.694;23.350;2022-07-21T03:32:35;95717.69;;;16.15;65.80
51083;BME280;37131;42.694;23.350;2022-07-21T03:35:01;95716.59;;;16.11;66.09
51083;BME280;37131;42.694;23.350;2022-07-21T03:37:27;95711.94;;;16.18;65.23
51083;BME280;37131;42.694;23.350;2022-07-21T03:39:53;95714.56;;;16.18;65.02
51083;BME280;37131;42.694;23.350;2022-07-21T03:42:18;95712.34;;;16.10;63.68
51083;BME280;37131;42.694;23.350;2022-07-21T03:44:44;95713.47;;;16.14;64.85
51083;BME280;37131;42.694;23.350;2022-07-21T03:47:09;95713.81;;;16.23;64.70
51083;BME280;37131;42.694;23.350;2022-07-21T03:49:34;95709.94;;;16.30;63.90
51083;BME280;37131;42.694;23.350;2022-07-21T03:52:00;95717.94;;;16.41;64.33
51083;BME280;37131;42.694;23.350;2022-07-21T03:54:25;95721.91;;;16.43;64.06
51083;BME280;37131;42.694;23.350;2022-07-21T03:56:51;95727.34;;;16.37;65.15
51083;BME280;37131;42.694;23.350;2022-07-21T03:59:16;95723.88;;;16.31;67.33
51083;BME280;37131;42.694;23.350;2022-07-21T04:01:43;95725.22;;;16.34;66.77
51083;BME280;37131;42.694;23.350;2022-07-21T04:04:09;95707.41;;;16.41;66.59
51083;BME280;37131;42.694;23.350;2022-07-21T04:06:34;95712.00;;;16.56;65.32
51083;BME280;37131;42.694;23.350;2022-07-21T04:09:00;95722.81;;;16.59;65.27
51083;BME280;37131;42.694;23.350;2022-07-21T04:11:25;95728.06;;;16.59;65.61
51083;BME280;37131;42.694;23.350;2022-07-21T04:13:51;95735.44;;;16.57;66.22
51083;BME280;37131;42.694;23.350;2022-07-21T04:16:16;95723.69;;;16.97;61.16
51083;BME280;37131;42.694;23.350;2022-07-21T04:18:41;95722.63;;;16.98;63.60
51083;BME280;37131;42.694;23.350;2022-07-21T04:21:07;95730.34;;;17.05;63.33
51083;BME280;37131;42.694;23.350;2022-07-21T04:23:32;95722.56;;;16.88;65.23
51083;BME280;37131;42.694;23.350;2022-07-21T04:25:58;95728.56;;;16.83;65.31
51083;BME280;37131;42.694;23.350;2022-07-21T04:28:23;95722.13;;;17.01;65.14
51083;BME280;37131;42.694;23.350;2022-07-21T04:30:49;95728.50;;;17.11;63.56
51083;BME280;37131;42.694;23.350;2022-07-21T04:33:14;95723.69;;;16.97;63.30
51083;BME280;37131;42.694;23.350;2022-07-21T04:35:40;95728.81;;;17.14;62.14
51083;BME280;37131;42.694;23.350;2022-07-21T04:38:05;95729.84;;;17.13;63.70
51083;BME280;37131;42.694;23.350;2022-07-21T04:40:31;95727.72;;;17.05;63.00
51083;BME280;37131;42.694;23.350;2022-07-21T04:42:56;95738.59;;;17.24;63.73
51083;BME280;37131;42.694;23.350;2022-07-21T04:45:22;95722.59;;;17.36;63.51
51083;BME280;37131;42.694;23.350;2022-07-21T04:47:50;95726.69;;;17.54;62.77
51083;BME280;37131;42.694;23.350;2022-07-21T04:50:18;95726.72;;;17.69;61.01
51083;BME280;37131;42.694;23.350;2022-07-21T04:52:44;95729.97;;;17.87;59.40
51083;BME280;37131;42.694;23.350;2022-07-21T04:55:10;95733.28;;;17.62;62.58
51083;BME280;37131;42.694;23.350;2022-07-21T04:57:38;95732.34;;;17.35;62.34
51083;BME280;37131;42.694;23.350;2022-07-21T05:00:04;95736.34;;;17.38;61.86
51083;BME280;37131;42.694;23.350;2022-07-21T05:02:31;95735.16;;;17.66;61.35
51083;BME280;37131;42.694;23.350;2022-07-21T05:04:56;95736.25;;;17.70;63.54
51083;BME280;37131;42.694;23.350;2022-07-21T05:07:22;95743.91;;;17.72;65.00
51083;BME280;37131;42.694;23.350;2022-07-21T05:09:47;95732.47;;;18.24;61.21
51083;BME280;37131;42.694;23.350;2022-07-21T05:12:12;95722.97;;;18.13;63.32
51083;BME280;37131;42.694;23.350;2022-07-21T05:14:38;95734.56;;;18.07;64.25
51083;BME280;37131;42.694;23.350;2022-07-21T05:17:03;95731.41;;;18.10;61.53
51083;BME280;37131;42.694;23.350;2022-07-21T05:19:29;95728.81;;;18.31;62.66
51083;BME280;37131;42.694;23.350;2022-07-21T05:21:54;95726.16;;;18.26;63.82
51083;BME280;37131;42.694;23.350;2022-07-21T05:24:19;95732.78;;;18.54;62.96
51083;BME280;37131;42.694;23.350;2022-07-21T05:26:45;95731.75;;;18.70;63.05
51083;BME280;37131;42.694;23.350;2022-07-21T05:29:10;95734.16;;;18.92;58.46
51083;BME280;37131;42.694;23.350;2022-07-21T05:31:35;95732.03;;;19.00;59.54
51083;BME280;37131;42.694;23.350;2022-07-21T05:34:01;95729.69;;;19.03;60.62
51083;BME280;37131;42.694;23.350;2022-07-21T05:36:26;95734.94;;;19.19;59.84
51083;BME280;37131;42.694;23.350;2022-07-21T05:38:52;95738.66;;;19.18;54.83
51083;BME280;37131;42.694;23.350;2022-07-21T05:41:17;95730.69;;;19.33;55.09
51083;BME280;37131;42.694;23.350;2022-07-21T05:43:42;95734.38;;;19.48;54.43
51083;BME280;37131;42.694;23.350;2022-07-21T05:46:08;95734.38;;;19.42;54.58
51083;BME280;37131;42.694;23.350;2022-07-21T05:48:33;95732.19;;;19.75;52.26
51083;BME280;37131;42.694;23.350;2022-07-21T05:50:59;95719.56;;;19.36;52.87
51083;BME280;37131;42.694;23.350;2022-07-21T05:53:24;95726.66;;;19.67;53.58
51083;BME280;37131;42.694;23.350;2022-07-21T05:55:50;95733.72;;;19.87;53.72
51083;BME280;37131;42.694;23.350;2022-07-21T05:58:15;95724.88;;;20.17;53.51
51083;BME280;37131;42.694;23.350;2022-07-21T06:00:42;95725.34;;;20.24;53.31
51083;BME280;37131;42.694;23.350;2022-07-21T06:03:07;95728.69;;;20.40;53.02
51083;BME280;37131;42.694;23.350;2022-07-21T06:05:32;95733.13;;;20.05;56.59
51083;BME280;37131;42.694;23.350;2022-07-21T06:07:58;95729.06;;;20.18;54.15
51083;BME280;37131;42.694;23.350;2022-07-21T06:10:24;95718.84;;;20.51;53.30
51083;BME280;37131;42.694;23.350;2022-07-21T06:12:49;95718.56;;;20.47;53.91
51083;BME280;37131;42.694;23.350;2022-07-21T06:15:15;95721.75;;;20.49;52.11
51083;BME280;37131;42.694;23.350;2022-07-21T06:17:45;95718.75;;;20.61;52.57
51083;BME280;37131;42.694;23.350;2022-07-21T06:20:11;95717.59;;;20.78;52.42
51083;BME280;37131;42.694;23.350;2022-07-21T06:22:37;95718.63;;;20.82;51.71
51083;BME280;37131;42.694;23.350;2022-07-21T06:25:03;95715.44;;;20.85;51.17
51083;BME280;37131;42.694;23.350;2022-07-21T06:27:29;95714.59;;;20.90;50.75
51083;BME280;37131;42.694;23.350;2022-07-21T06:29:55;95716.97;;;20.91;50.59
51083;BME280;37131;42.694;23.350;2022-07-21T06:32:22;95711.25;;;21.08;51.00
51083;BME280;37131;42.694;23.350;2022-07-21T06:34:48;95704.41;;;21.02;50.00
51083;BME280;37131;42.694;23.350;2022-07-21T06:37:13;95701.94;;;21.11;48.56
51083;BME280;37131;42.694;23.350;2022-07-21T06:39:38;95703.94;;;21.24;49.49
51083;BME280;37131;42.694;23.350;2022-07-21T06:42:07;95701.84;;;21.50;49.43
51083;BME280;37131;42.694;23.350;2022-07-21T06:44:33;95703.69;;;21.50;48.52
51083;BME280;37131;42.694;23.350;2022-07-21T06:46:58;95700.25;;;21.73;47.18
51083;BME280;37131;42.694;23.350;2022-07-21T06:49:32;95700.41;;;21.82;48.63
51083;BME280;37131;42.694;23.350;2022-07-21T06:51:57;95701.94;;;22.07;48.13
51083;BME280;37131;42.694;23.350;2022-07-21T06:54:23;95702.25;;;22.06;46.29
51083;BME280;37131;42.694;23.350;2022-07-21T06:56:48;95692.56;;;22.15;46.95
51083;BME280;37131;42.694;23.350;2022-07-21T06:59:14;95693.78;;;22.42;47.20
51083;BME280;37131;42.694;23.350;2022-07-21T07:01:39;95692.63;;;22.48;47.20
51083;BME280;37131;42.694;23.350;2022-07-21T07:04:05;95695.66;;;22.60;46.14
51083;BME280;37131;42.694;23.350;2022-07-21T07:06:30;95690.25;;;22.66;45.98
51083;BME280;37131;42.694;23.350;2022-07-21T07:08:56;95681.50;;;22.65;45.48
51083;BME280;37131;42.694;23.350;2022-07-21T07:11:21;95689.78;;;22.77;45.41
51083;BME280;37131;42.694;23.350;2022-07-21T07:13:47;95660.69;;;22.53;45.89
51083;BME280;37131;42.694;23.350;2022-07-21T07:16:12;95677.44;;;23.01;46.00
51083;BME280;37131;42.694;23.350;2022-07-21T07:18:38;95683.13;;;23.27;44.57
51083;BME280;37131;42.694;23.350;2022-07-21T07:21:04;95678.50;;;23.46;44.76
51083;BME280;37131;42.694;23.350;2022-07-21T07:23:29;95673.47;;;23.59;45.02
51083;BME280;37131;42.694;23.350;2022-07-21T07:25:55;95683.72;;;23.65;44.30
51083;BME280;37131;42.694;23.350;2022-07-21T07:28:20;95669.78;;;23.82;47.62
51083;BME280;37131;42.694;23.350;2022-07-21T07:30:46;95676.41;;;23.99;45.21
51083;BME280;37131;42.694;23.350;2022-07-21T07:33:13;95667.41;;;24.09;43.76
51083;BME280;37131;42.694;23.350;2022-07-21T07:35:39;95660.53;;;24.30;42.48
51083;BME280;37131;42.694;23.350;2022-07-21T07:38:04;95658.97;;;24.52;42.34
51083;BME280;37131;42.694;23.350;2022-07-21T07:40:29;95657.25;;;24.70;42.74
51083;BME280;37131;42.694;23.350;2022-07-21T07:42:55;95654.91;;;24.77;42.18
51083;BME280;37131;42.694;23.350;2022-07-21T07:45:20;95644.84;;;24.97;41.48
51083;BME280;37131;42.694;23.350;2022-07-21T07:47:46;95654.09;;;24.99;41.35
51083;BME280;37131;42.694;23.350;2022-07-21T07:50:13;95647.78;;;25.27;41.22
51083;BME280;37131;42.694;23.350;2022-07-21T07:52:40;95640.81;;;25.39;40.16
51083;BME280;37131;42.694;23.350;2022-07-21T07:55:06;95642.22;;;25.46;40.71
51083;BME280;37131;42.694;23.350;2022-07-21T07:57:35;95642.47;;;25.76;40.15
51083;BME280;37131;42.694;23.350;2022-07-21T08:00:04;95637.41;;;25.65;39.95
51083;BME280;37131;42.694;23.350;2022-07-21T08:02:29;95629.75;;;25.81;39.35
51083;BME280;37131;42.694;23.350;2022-07-21T08:04:55;95630.25;;;26.01;38.35
51083;BME280;37131;42.694;23.350;2022-07-21T08:07:20;95624.16;;;26.18;38.90
51083;BME280;37131;42.694;23.350;2022-07-21T08:09:45;95632.63;;;26.37;38.59
51083;BME280;37131;42.694;23.350;2022-07-21T08:12:11;95618.28;;;26.59;37.90
51083;BME280;37131;42.694;23.350;2022-07-21T08:14:36;95626.91;;;26.65;37.09
51083;BME280;37131;42.694;23.350;2022-07-21T08:17:02;95620.16;;;26.68;37.18
51083;BME280;37131;42.694;23.350;2022-07-21T08:19:27;95573.47;;;26.48;37.99
51083;BME280;37131;42.694;23.350;2022-07-21T08:21:53;95576.28;;;26.69;36.95
51083;BME280;37131;42.694;23.350;2022-07-21T08:24:18;95614.06;;;27.06;37.43
51083;BME280;37131;42.694;23.350;2022-07-21T08:26:44;95611.00;;;27.25;38.41
51083;BME280;37131;42.694;23.350;2022-07-21T08:29:10;95605.16;;;27.40;37.11
51083;BME280;37131;42.694;23.350;2022-07-21T08:31:35;95617.88;;;27.43;36.32
51083;BME280;37131;42.694;23.350;2022-07-21T08:34:01;95609.72;;;27.31;36.00
51083;BME280;37131;42.694;23.350;2022-07-21T08:36:26;95605.66;;;27.25;36.61
51083;BME280;37131;42.694;23.350;2022-07-21T08:38:52;95603.38;;;27.44;35.57
51083;BME280;37131;42.694;23.350;2022-07-21T08:41:17;95607.13;;;27.52;34.79
51083;BME280;37131;42.694;23.350;2022-07-21T08:43:43;95611.28;;;27.41;36.33
51083;BME280;37131;42.694;23.350;2022-07-21T08:46:08;95606.31;;;27.52;35.29
51083;BME280;37131;42.694;23.350;2022-07-21T08:48:34;95598.34;;;27.73;35.21
51083;BME280;37131;42.694;23.350;2022-07-21T08:51:01;95596.16;;;27.87;35.00
51083;BME280;37131;42.694;23.350;2022-07-21T08:53:26;95589.72;;;28.09;35.42
51083;BME280;37131;42.694;23.350;2022-07-21T08:55:54;95550.97;;;28.07;34.49
51083;BME280;37131;42.694;23.350;2022-07-21T08:58:20;95580.59;;;28.44;34.46
51083;BME280;37131;42.694;23.350;2022-07-21T09:00:47;95581.16;;;28.49;33.30
51083;BME280;37131;42.694;23.350;2022-07-21T09:03:24;95574.47;;;28.56;33.80
51083;BME280;37131;42.694;23.350;2022-07-21T09:08:36;95562.25;;;28.79;33.74
51083;BME280;37131;42.694;23.350;2022-07-21T09:11:25;95569.06;;;28.77;34.47
51083;BME280;37131;42.694;23.350;2022-07-21T09:14:08;95563.59;;;28.73;33.75
51083;BME280;37131;42.694;23.350;2022-07-21T09:16:41;95549.16;;;28.78;33.01
51083;BME280;37131;42.694;23.350;2022-07-21T09:21:41;95559.03;;;29.23;33.23
51083;BME280;37131;42.694;23.350;2022-07-21T09:24:24;95556.69;;;29.34;31.81
51083;BME280;37131;42.694;23.350;2022-07-21T09:27:23;95559.16;;;29.27;32.51
51083;BME280;37131;42.694;23.350;2022-07-21T09:29:59;95543.22;;;29.46;31.09
51083;BME280;37131;42.694;23.350;2022-07-21T09:32:33;95547.81;;;29.58;32.23
51083;BME280;37131;42.694;23.350;2022-07-21T09:35:10;95554.47;;;29.77;30.81
51083;BME280;37131;42.694;23.350;2022-07-21T09:37:41;95550.78;;;29.81;30.23
51083;BME280;37131;42.694;23.350;2022-07-21T09:40:11;95521.19;;;29.53;29.94
51083;BME280;37131;42.694;23.350;2022-07-21T09:42:48;95545.84;;;29.96;29.30
51083;BME280;37131;42.694;23.350;2022-07-21T09:45:16;95543.63;;;30.14;29.80
51083;BME280;37131;42.694;23.350;2022-07-21T09:47:44;95535.25;;;30.03;29.83
51083;BME280;37131;42.694;23.350;2022-07-21T09:50:15;95554.81;;;29.75;31.27
51083;BME280;37131;42.694;23.350;2022-07-21T09:52:43;95544.59;;;29.81;31.31
51083;BME280;37131;42.694;23.350;2022-07-21T09:55:14;95503.84;;;29.79;29.37
51083;BME280;37131;42.694;23.350;2022-07-21T09:57:40;95532.75;;;30.10;31.34
51083;BME280;37131;42.694;23.350;2022-07-21T10:00:17;95538.59;;;30.12;30.84
51083;BME280;37131;42.694;23.350;2022-07-21T10:02:44;95530.47;;;30.24;29.42
51083;BME280;37131;42.694;23.350;2022-07-21T10:05:12;95529.53;;;30.33;30.74
51083;BME280;37131;42.694;23.350;2022-07-21T10:07:42;95519.84;;;30.44;30.95
51083;BME280;37131;42.694;23.350;2022-07-21T10:10:08;95518.56;;;30.54;30.72
51083;BME280;37131;42.694;23.350;2022-07-21T10:12:34;95521.75;;;30.91;29.68
51083;BME280;37131;42.694;23.350;2022-07-21T10:15:00;95526.47;;;30.78;28.12
51083;BME280;37131;42.694;23.350;2022-07-21T10:17:26;95527.56;;;30.46;28.84
51083;BME280;37131;42.694;23.350;2022-07-21T10:22:56;95522.72;;;30.51;28.40
51083;BME280;37131;42.694;23.350;2022-07-21T10:25:23;95520.19;;;30.58;28.54
51083;BME280;37131;42.694;23.350;2022-07-21T10:30:41;95514.56;;;30.64;28.57
51083;BME280;37131;42.694;23.350;2022-07-21T10:33:07;95513.44;;;30.81;27.30
51083;BME280;37131;42.694;23.350;2022-07-21T10:35:32;95515.34;;;30.64;28.38
51083;BME280;37131;42.694;23.350;2022-07-21T10:37:59;95505.34;;;30.96;27.13
51083;BME280;37131;42.694;23.350;2022-07-21T10:45:45;95500.69;;;31.09;27.89
51083;BME280;37131;42.694;23.350;2022-07-21T10:48:50;95488.22;;;31.21;27.34
51083;BME280;37131;42.694;23.350;2022-07-21T10:51:16;95495.22;;;31.25;27.83
51083;BME280;37131;42.694;23.350;2022-07-21T10:53:42;95487.56;;;31.43;27.42
51083;BME280;37131;42.694;23.350;2022-07-21T10:56:25;95452.50;;;31.24;28.35
51083;BME280;37131;42.694;23.350;2022-07-21T10:58:52;95481.25;;;31.55;26.75
51083;BME280;37131;42.694;23.350;2022-07-21T11:03:43;95472.56;;;31.46;27.86
51083;BME280;37131;42.694;23.350;2022-07-21T11:06:20;95472.84;;;31.57;27.78
51083;BME280;37131;42.694;23.350;2022-07-21T11:08:53;95471.06;;;31.64;27.22
51083;BME280;37131;42.694;23.350;2022-07-21T11:11:23;95467.63;;;31.48;27.82
51083;BME280;37131;42.694;23.350;2022-07-21T11:21:52;95470.63;;;31.82;27.52
51083;BME280;37131;42.694;23.350;2022-07-21T11:24:25;95471.34;;;31.79;27.49
51083;BME280;37131;42.694;23.350;2022-07-21T11:27:01;95466.66;;;31.95;26.56
51083;BME280;37131;42.694;23.350;2022-07-21T11:29:27;95465.38;;;31.89;26.41
51083;BME280;37131;42.694;23.350;2022-07-21T11:31:54;95470.56;;;31.78;27.13
51083;BME280;37131;42.694;23.350;2022-07-21T11:34:19;95473.38;;;31.86;27.55
51083;BME280;37131;42.694;23.350;2022-07-21T11:36:46;95462.75;;;31.93;26.00
51083;BME280;37131;42.694;23.350;2022-07-21T11:39:13;95456.56;;;31.92;26.76
51083;BME280;37131;42.694;23.350;2022-07-21T11:41:40;95445.06;;;31.95;27.05
51083;BME280;37131;42.694;23.350;2022-07-21T11:44:07;95451.88;;;32.09;26.89
51083;BME280;37131;42.694;23.350;2022-07-21T11:46:51;95433.56;;;31.98;27.62
51083;BME280;37131;42.694;23.350;2022-07-21T11:49:18;95450.88;;;31.97;26.86
51083;BME280;37131;42.694;23.350;2022-07-21T11:51:57;95450.28;;;32.08;27.01
51083;BME280;37131;42.694;23.350;2022-07-21T11:54:29;95438.59;;;32.20;26.07
51083;BME280;37131;42.694;23.350;2022-07-21T11:56:56;95437.97;;;31.87;26.33
51083;BME280;37131;42.694;23.350;2022-07-21T11:59:23;95444.19;;;32.11;25.97
51083;BME280;37131;42.694;23.350;2022-07-21T12:02:03;95436.44;;;32.09;26.69
51083;BME280;37131;42.694;23.350;2022-07-21T12:07:13;95436.50;;;32.32;26.66
51083;BME280;37131;42.694;23.350;2022-07-21T12:09:41;95437.53;;;32.51;27.86
51083;BME280;37131;42.694;23.350;2022-07-21T12:12:08;95443.97;;;32.20;26.44
51083;BME280;37131;42.694;23.350;2022-07-21T12:14:49;95423.53;;;32.42;26.44
51083;BME280;37131;42.694;23.350;2022-07-21T12:17:19;95393.63;;;32.27;26.34
51083;BME280;37131;42.694;23.350;2022-07-21T12:19:56;95428.03;;;32.57;26.46
51083;BME280;37131;42.694;23.350;2022-07-21T12:22:33;95421.78;;;32.53;26.92
51083;BME280;37131;42.694;23.350;2022-07-21T12:24:58;95423.88;;;32.63;25.93
51083;BME280;37131;42.694;23.350;2022-07-21T12:27:24;95419.38;;;32.71;25.72
51083;BME280;37131;42.694;23.350;2022-07-21T12:29:49;95414.31;;;32.43;25.86
51083;BME280;37131;42.694;23.350;2022-07-21T12:35:04;95403.69;;;32.80;27.18
51083;BME280;37131;42.694;23.350;2022-07-21T12:38:35;95408.94;;;32.96;25.85
51083;BME280;37131;42.694;23.350;2022-07-21T12:40:40;95412.38;;;32.93;27.02
51083;BME280;37131;42.694;23.350;2022-07-21T12:43:07;95410.69;;;33.12;26.18
51083;BME280;37131;42.694;23.350;2022-07-21T12:45:53;95400.56;;;33.05;25.16
51083;BME280;37131;42.694;23.350;2022-07-21T12:48:22;95396.06;;;32.86;26.37
51083;BME280;37131;42.694;23.350;2022-07-21T12:51:12;95398.00;;;32.85;26.16
51083;BME280;37131;42.694;23.350;2022-07-21T12:53:46;95398.28;;;32.80;26.29
51083;BME280;37131;42.694;23.350;2022-07-21T12:56:15;95394.19;;;32.90;26.05
51083;BME280;37131;42.694;23.350;2022-07-21T12:58:42;95391.47;;;32.86;26.54
51083;BME280;37131;42.694;23.350;2022-07-21T13:01:08;95395.13;;;33.01;26.27
51083;BME280;37131;42.694;23.350;2022-07-21T13:03:34;95383.16;;;33.02;25.88
51083;BME280;37131;42.694;23.350;2022-07-21T13:06:01;95392.84;;;32.77;26.87
51083;BME280;37131;42.694;23.350;2022-07-21T13:08:27;95393.00;;;32.87;26.22
51083;BME280;37131;42.694;23.350;2022-07-21T13:10:53;95386.94;;;32.94;26.15
51083;BME280;37131;42.694;23.350;2022-07-21T13:13:19;95376.56;;;32.69;26.10
51083;BME280;37131;42.694;23.350;2022-07-21T13:15:44;95377.97;;;32.86;25.73
51083;BME280;37131;42.694;23.350;2022-07-21T13:18:10;95364.00;;;32.81;26.94
51083;BME280;37131;42.694;23.350;2022-07-21T13:20:35;95373.53;;;33.01;26.23
51083;BME280;37131;42.694;23.350;2022-07-21T13:23:01;95375.88;;;32.76;26.51
51083;BME280;37131;42.694;23.350;2022-07-21T13:25:26;95368.53;;;33.03;26.37